Time;durP1;ratioP1;P1;durP2;ratioP2;P2;SDS_P1;SDS_P2;PMS_P1;PMS_P2;Temp;Humidity;BMP_temperature;BMP_pressure;BME280_temperature;BME280_humidity;BME280_pressure;Samples;Min_cycle;Max_cycle;Signal;HPM_P1;HPM_P2
2023/10/29 00:00:18;;;;;;;0.00;0.00;;;;;;;11.28;100.00;97667.31;5156057;27;20250;-57
2023/10/29 00:03:07;;;;;;;0.00;0.00;;;;;;;11.32;100.00;97664.25;5157468;27;20285;-57
2023/10/29 00:05:54;;;;;;;0.00;0.00;;;;;;;11.40;100.00;97660.91;5157493;27;20676;-57
2023/10/29 00:08:41;;;;;;;0.10;0.10;;;;;;;11.34;100.00;97658.81;5157220;27;20262;-57
2023/10/29 00:11:28;;;;;;;0.00;0.00;;;;;;;11.32;100.00;97660.78;5157485;27;20201;-57
2023/10/29 00:14:15;;;;;;;0.10;0.10;;;;;;;11.27;100.00;97665.66;5141406;27;20208;-57
2023/10/29 00:17:02;;;;;;;0.10;0.10;;;;;;;11.32;100.00;97660.78;5157136;27;20222;-57
2023/10/29 00:19:50;;;;;;;0.00;0.00;;;;;;;11.39;100.00;97652.13;5157240;27;20212;-57
2023/10/29 00:22:37;;;;;;;0.00;0.00;;;;;;;11.37;100.00;97650.56;5157048;27;20301;-56
2023/10/29 00:25:24;;;;;;;0.00;0.00;;;;;;;11.38;100.00;97644.28;5156008;27;20279;-57
2023/10/29 00:28:11;;;;;;;0.10;0.10;;;;;;;11.39;100.00;97646.00;5156952;27;20212;-57
2023/10/29 00:30:58;;;;;;;0.00;0.00;;;;;;;11.42;100.00;97635.09;5155732;27;20197;-57
2023/10/29 00:33:46;;;;;;;0.00;0.00;;;;;;;11.41;100.00;97631.63;5156612;27;20261;-57
2023/10/29 00:36:34;;;;;;;0.00;0.00;;;;;;;11.48;100.00;97621.25;5141260;27;20193;-57
2023/10/29 00:39:21;;;;;;;0.00;0.00;;;;;;;11.47;100.00;97625.72;5156766;27;20707;-56
2023/10/29 00:42:08;;;;;;;0.00;0.00;;;;;;;11.47;100.00;97615.13;5140865;27;20204;-57
2023/10/29 00:44:54;;;;;;;0.10;0.10;;;;;;;11.55;100.00;97608.28;5155455;27;20201;-57
2023/10/29 00:47:41;;;;;;;0.00;0.00;;;;;;;11.54;100.00;97604.78;5141114;27;20208;-57
2023/10/29 00:50:28;;;;;;;0.10;0.10;;;;;;;11.49;100.00;97608.88;5156485;27;20189;-57
2023/10/29 00:53:18;;;;;;;0.00;0.00;;;;;;;11.52;100.00;97625.31;5156355;27;20221;-57
2023/10/29 00:56:08;;;;;;;0.00;0.00;;;;;;;11.53;100.00;97618.19;5156646;27;20192;-57
2023/10/29 00:58:55;;;;;;;0.10;0.10;;;;;;;11.56;100.00;97618.75;5140738;27;20189;-56
2023/10/29 01:01:42;;;;;;;0.00;0.00;;;;;;;11.45;100.00;97625.03;5155316;27;20196;-57
2023/10/29 01:04:29;;;;;;;0.00;0.00;;;;;;;11.46;100.00;97625.88;5140579;27;20242;-57
2023/10/29 01:07:17;;;;;;;0.10;0.10;;;;;;;11.51;100.00;97622.81;5156135;27;20230;-56
2023/10/29 01:10:07;;;;;;;0.00;0.00;;;;;;;11.51;100.00;97628.13;5156288;27;20197;-56
2023/10/29 01:12:54;;;;;;;0.10;0.10;;;;;;;11.50;100.00;97616.69;5140319;27;20204;-57
2023/10/29 01:15:41;;;;;;;0.00;0.00;;;;;;;11.46;100.00;97600.19;5139220;27;20197;-56
2023/10/29 01:18:28;;;;;;;0.00;0.00;;;;;;;11.59;100.00;97599.91;5156056;27;20201;-56
2023/10/29 01:21:16;;;;;;;0.00;0.00;;;;;;;11.46;100.00;97596.72;5156000;27;20199;-57
2023/10/29 01:24:03;;;;;;;0.00;0.00;;;;;;;11.51;100.00;97610.38;5139959;27;20228;-56
2023/10/29 01:26:51;;;;;;;0.00;0.00;;;;;;;11.46;100.00;97632.00;5156123;27;20258;-57
2023/10/29 01:29:38;;;;;;;0.00;0.00;;;;;;;11.51;100.00;97625.47;5138923;27;20195;-57
2023/10/29 01:32:25;;;;;;;0.00;0.00;;;;;;;11.52;100.00;97627.13;5155704;27;20246;-56
2023/10/29 01:35:12;;;;;;;0.10;0.10;;;;;;;11.53;100.00;97623.50;5139582;27;20261;-56
2023/10/29 01:38:01;;;;;;;0.00;0.00;;;;;;;11.51;100.00;97630.78;5155557;27;20197;-57
2023/10/29 01:40:48;;;;;;;0.07;0.07;;;;;;;11.52;100.00;97633.28;5155608;27;20698;-57
2023/10/29 01:43:37;;;;;;;0.00;0.00;;;;;;;11.51;100.00;97628.13;5155533;27;20181;-57
2023/10/29 01:46:23;;;;;;;0.00;0.00;;;;;;;11.61;100.00;97616.50;5154264;27;20308;-57
2023/10/29 01:49:10;;;;;;;0.00;0.00;;;;;;;11.51;100.00;97605.09;5155578;27;20196;-57
2023/10/29 01:51:57;;;;;;;0.00;0.00;;;;;;;11.53;100.00;97587.22;5139687;27;20189;-57
2023/10/29 01:54:44;;;;;;;0.00;0.00;;;;;;;11.58;100.00;97595.59;5139314;27;20289;-57
2023/10/29 01:57:33;;;;;;;0.10;0.10;;;;;;;11.58;100.00;97579.69;5155454;27;20370;-56
2023/10/29 02:00:22;;;;;;;0.00;0.00;;;;;;;11.58;100.00;97570.88;5138265;27;20314;-57
2023/10/29 02:03:08;;;;;;;0.00;0.00;;;;;;;11.59;100.00;97560.16;5155144;27;20201;-57
2023/10/29 02:05:55;;;;;;;0.00;0.00;;;;;;;11.64;100.00;97555.22;5139504;27;20660;-57
2023/10/29 02:08:42;;;;;;;0.00;0.00;;;;;;;11.62;100.00;97538.63;5139546;27;20197;-57
2023/10/29 02:11:29;;;;;;;0.00;0.00;;;;;;;11.59;100.00;97523.03;5139273;27;20193;-56
2023/10/29 02:14:16;;;;;;;0.00;0.00;;;;;;;11.63;100.00;97508.47;5154947;27;20212;-56
2023/10/29 02:17:05;;;;;;;0.00;0.00;;;;;;;11.62;100.00;97500.69;5154904;27;20650;-56
2023/10/29 02:19:52;;;;;;;0.00;0.00;;;;;;;11.53;100.00;97486.47;5154925;27;20193;-56
2023/10/29 02:22:40;;;;;;;0.07;0.07;;;;;;;11.63;100.00;97489.91;5154707;27;20227;-57
2023/10/29 02:25:27;;;;;;;0.00;0.00;;;;;;;11.50;100.00;97483.28;5139022;27;20811;-56
2023/10/29 02:28:14;;;;;;;0.00;0.00;;;;;;;11.59;100.00;97493.03;5138952;27;20188;-57
2023/10/29 02:31:01;;;;;;;0.10;0.10;;;;;;;11.59;100.00;97495.66;5153573;27;20229;-56
2023/10/29 02:33:48;;;;;;;0.10;0.10;;;;;;;11.57;100.00;97498.44;5138876;27;20246;-57
2023/10/29 02:36:35;;;;;;;0.07;0.07;;;;;;;11.54;100.00;97492.59;5154494;27;20188;-56
2023/10/29 02:39:23;;;;;;;0.00;0.00;;;;;;;11.56;100.00;97485.34;5138946;27;20184;-56
2023/10/29 02:42:14;;;;;;;0.10;0.10;;;;;;;11.59;100.00;97475.28;5154640;27;20196;-56
2023/10/29 02:45:01;;;;;;;0.10;0.10;;;;;;;11.54;100.00;97485.47;5153002;27;20185;-56
2023/10/29 02:47:49;;;;;;;0.00;0.00;;;;;;;11.52;100.00;97489.28;5138381;27;20208;-56
2023/10/29 02:50:37;;;;;;;0.00;0.00;;;;;;;11.52;100.00;97531.69;5154486;27;20266;-56
2023/10/29 02:53:24;;;;;;;0.03;0.03;;;;;;;11.59;100.00;97546.06;5154350;27;20200;-57
2023/10/29 02:56:12;;;;;;;0.10;0.10;;;;;;;11.63;100.00;97547.41;5138849;27;20196;-56
2023/10/29 02:58:59;;;;;;;0.10;0.10;;;;;;;11.66;100.00;97540.00;5154432;27;20687;-56
2023/10/29 03:01:46;;;;;;;0.00;0.00;;;;;;;11.69;100.00;97534.44;5137344;27;20263;-57
2023/10/29 03:04:34;;;;;;;0.00;0.00;;;;;;;11.72;100.00;97542.09;5138736;27;20204;-56
2023/10/29 03:07:21;;;;;;;0.00;0.00;;;;;;;11.78;100.00;97531.88;5154389;27;20270;-57
2023/10/29 03:10:08;;;;;;;0.00;0.00;;;;;;;11.75;100.00;97531.16;5138537;27;20750;-57
2023/10/29 03:12:56;;;;;;;0.00;0.00;;;;;;;11.74;100.00;97526.84;5154391;27;20197;-57
2023/10/29 03:15:43;;;;;;;0.00;0.00;;;;;;;11.71;100.00;97519.19;5152784;27;20215;-56
2023/10/29 03:18:30;;;;;;;0.10;0.10;;;;;;;11.75;100.00;97512.59;5154177;27;20227;-57
2023/10/29 03:21:18;;;;;;;0.00;0.00;;;;;;;11.79;100.00;97509.69;5154322;27;20192;-57
2023/10/29 03:24:05;;;;;;;0.00;0.00;;;;;;;11.73;100.00;97490.72;5153924;27;20727;-57
2023/10/29 03:26:53;;;;;;;0.00;0.00;;;;;;;11.72;100.00;97478.44;5153984;27;20193;-57
2023/10/29 03:29:41;;;;;;;0.00;0.00;;;;;;;11.73;100.00;97480.09;5152857;27;20238;-56
2023/10/29 03:32:28;;;;;;;0.10;0.10;;;;;;;11.75;100.00;97456.91;5154298;27;20193;-57
2023/10/29 03:35:15;;;;;;;0.00;0.00;;;;;;;11.74;100.00;97454.41;5153812;27;20244;-56
2023/10/29 03:38:02;;;;;;;0.00;0.00;;;;;;;11.73;100.00;97456.22;5138481;27;20193;-57
2023/10/29 03:40:49;;;;;;;0.10;0.10;;;;;;;11.73;100.00;97463.34;5153958;27;20193;-56
2023/10/29 03:43:36;;;;;;;0.10;0.10;;;;;;;11.71;100.00;97473.28;5138239;27;20636;-57
2023/10/29 03:46:24;;;;;;;0.00;0.00;;;;;;;11.75;100.00;97464.03;5152817;27;20255;-57
2023/10/29 03:49:15;;;;;;;0.00;0.00;;;;;;;11.77;100.00;97456.75;5154107;27;20262;-57
2023/10/29 03:52:02;;;;;;;0.00;0.00;;;;;;;11.71;100.00;97452.06;5153911;27;20193;-56
2023/10/29 03:54:49;;;;;;;0.00;0.00;;;;;;;11.71;100.00;97454.72;5153631;27;20257;-57
2023/10/29 03:57:36;;;;;;;0.00;0.00;;;;;;;11.65;100.00;97447.34;5153907;27;20191;-57
2023/10/29 04:00:23;;;;;;;0.10;0.10;;;;;;;11.64;100.00;97449.16;5153712;27;20192;-57
2023/10/29 04:03:11;;;;;;;0.10;0.10;;;;;;;11.55;100.00;97457.16;5157540;27;20212;-57
2023/10/29 04:05:58;;;;;;;0.10;0.10;;;;;;;11.65;100.00;97463.25;5157405;27;20261;-57
2023/10/29 04:08:45;;;;;;;0.10;0.10;;;;;;;11.63;100.00;97474.00;5157423;27;20222;-57
2023/10/29 04:11:32;;;;;;;0.10;0.10;;;;;;;11.70;100.00;97466.31;5157321;27;20803;-57
2023/10/29 04:14:20;;;;;;;0.00;0.00;;;;;;;11.64;100.00;97477.50;5157249;27;20663;-57
2023/10/29 04:17:07;;;;;;;0.00;0.00;;;;;;;11.72;100.00;97465.16;5141492;27;20274;-57
2023/10/29 04:19:55;;;;;;;0.00;0.00;;;;;;;11.66;100.00;97467.56;5157232;27;20193;-57
2023/10/29 04:22:42;;;;;;;0.03;0.03;;;;;;;11.68;100.00;97465.63;5157021;27;20262;-56
2023/10/29 04:25:29;;;;;;;0.00;0.00;;;;;;;11.66;100.00;97449.00;5157326;27;20303;-57
2023/10/29 04:28:16;;;;;;;0.00;0.00;;;;;;;11.75;100.00;97450.78;5157280;27;20212;-57
2023/10/29 04:31:03;;;;;;;0.10;0.10;;;;;;;11.68;100.00;97437.28;5155881;27;20189;-56
2023/10/29 04:33:51;;;;;;;0.00;0.00;;;;;;;11.74;100.00;97434.03;5156967;27;20270;-56
2023/10/29 04:36:41;;;;;;;0.07;0.07;;;;;;;11.87;100.00;97422.25;5156573;27;20297;-57
2023/10/29 04:39:28;;;;;;;0.00;0.00;;;;;;;11.75;100.00;97441.00;5157067;27;20200;-57
2023/10/29 04:42:14;;;;;;;0.00;0.00;;;;;;;11.72;100.00;97428.03;5156795;27;20314;-57
2023/10/29 04:45:03;;;;;;;0.00;0.00;;;;;;;11.72;100.00;97441.31;5155365;27;20188;-57
2023/10/29 04:47:50;;;;;;;0.00;0.00;;;;;;;11.72;100.00;97436.00;5156860;27;20201;-57
2023/10/29 04:50:37;;;;;;;0.00;0.00;;;;;;;11.63;100.00;97433.41;5156686;27;20255;-57
2023/10/29 04:53:25;;;;;;;0.10;0.10;;;;;;;11.69;100.00;97420.41;5156672;27;20188;-57
2023/10/29 04:56:11;;;;;;;0.00;0.00;;;;;;;11.69;100.00;97428.34;5156344;27;20291;-57
2023/10/29 04:58:58;;;;;;;0.00;0.00;;;;;;;11.66;100.00;97435.75;5156563;27;20201;-57
2023/10/29 05:01:45;;;;;;;0.10;0.10;;;;;;;11.70;100.00;97440.63;5155101;27;20192;-57
2023/10/29 05:04:32;;;;;;;0.10;0.10;;;;;;;11.71;100.00;97438.81;5156411;27;20295;-56
2023/10/29 05:07:19;;;;;;;0.00;0.00;;;;;;;11.71;100.00;97436.97;5156390;27;20185;-57
2023/10/29 05:10:08;;;;;;;0.00;0.00;;;;;;;11.83;100.00;97432.34;5156143;27;20188;-56
2023/10/29 05:12:56;;;;;;;0.00;0.00;;;;;;;11.87;100.00;97430.22;5155919;27;20265;-57
2023/10/29 05:15:43;;;;;;;0.00;0.00;;;;;;;11.86;100.00;97424.06;5154744;27;20220;-56
2023/10/29 05:18:30;;;;;;;0.00;0.00;;;;;;;11.83;100.00;97419.06;5156194;27;20189;-56
2023/10/29 05:21:17;;;;;;;0.10;0.10;;;;;;;11.79;100.00;97423.00;5156119;27;20197;-56
2023/10/29 05:24:04;;;;;;;0.00;0.00;;;;;;;11.76;100.00;97397.56;5155611;27;20228;-56
2023/10/29 05:26:52;;;;;;;0.10;0.10;;;;;;;11.79;100.00;97403.59;5156106;27;20192;-56
2023/10/29 05:29:39;;;;;;;0.10;0.10;;;;;;;11.80;100.00;97405.28;5154622;27;20269;-57
2023/10/29 05:32:26;;;;;;;0.10;0.10;;;;;;;11.81;100.00;97430.81;5155759;27;20188;-56
2023/10/29 05:35:13;;;;;;;0.00;0.00;;;;;;;11.85;100.00;97429.53;5155597;27;20212;-56
2023/10/29 05:37:59;;;;;;;0.10;0.10;;;;;;;11.91;100.00;97421.00;5155632;27;20188;-56
2023/10/29 05:40:47;;;;;;;0.00;0.00;;;;;;;11.94;100.00;97423.34;5155759;27;20188;-56
2023/10/29 05:43:36;;;;;;;0.00;0.00;;;;;;;12.04;100.00;97408.19;5155685;27;20226;-56
2023/10/29 05:46:23;;;;;;;0.00;0.00;;;;;;;12.03;100.00;97425.94;5154352;27;20687;-57
2023/10/29 05:49:09;;;;;;;0.00;0.00;;;;;;;11.94;100.00;97426.81;5155641;27;20238;-56
2023/10/29 05:51:57;;;;;;;0.03;0.03;;;;;;;11.96;100.00;97432.81;5155540;27;20184;-56
2023/10/29 05:54:44;;;;;;;0.10;0.10;;;;;;;11.93;100.00;97425.16;5139646;27;20188;-57
2023/10/29 05:57:31;;;;;;;0.00;0.00;;;;;;;11.89;100.00;97429.09;5155398;27;20258;-57
2023/10/29 06:00:19;;;;;;;0.07;0.07;;;;;;;11.91;100.00;97428.94;5154027;27;20196;-57
2023/10/29 06:03:06;;;;;;;0.10;0.10;;;;;;;11.84;100.00;97433.16;5155141;27;20192;-59
2023/10/29 06:05:54;;;;;;;0.00;0.00;;;;;;;11.88;100.00;97430.09;5155149;27;20356;-57
2023/10/29 06:08:40;;;;;;;0.10;0.10;;;;;;;11.99;100.00;97429.03;5139446;27;20387;-57
2023/10/29 06:11:28;;;;;;;0.00;0.00;;;;;;;11.89;100.00;97452.97;5154919;27;20192;-57
2023/10/29 06:14:14;;;;;;;0.10;0.10;;;;;;;11.83;100.00;97456.22;5155060;27;20184;-57
2023/10/29 06:17:03;;;;;;;0.03;0.03;;;;;;;11.79;100.00;97467.25;5154845;27;20216;-57
2023/10/29 06:20:07;;;;;;;0.10;0.10;;;;;;;11.72;100.00;97477.59;5154985;27;20238;-56
2023/10/29 06:22:55;;;;;;;0.00;0.00;;;;;;;11.68;100.00;97476.22;5153966;27;20225;-57
2023/10/29 06:25:42;;;;;;;0.10;0.10;;;;;;;11.65;100.00;97485.28;5154976;27;20197;-57
2023/10/29 06:28:29;;;;;;;0.00;0.00;;;;;;;11.61;100.00;97475.97;5154793;27;20200;-57
2023/10/29 06:31:16;;;;;;;0.00;0.00;;;;;;;11.58;100.00;97473.63;5153574;27;20360;-57
2023/10/29 06:34:04;;;;;;;0.10;0.10;;;;;;;11.63;100.00;97465.22;5154705;27;20192;-57
2023/10/29 06:36:51;;;;;;;0.00;0.00;;;;;;;11.59;100.00;97451.44;5154438;27;20706;-57
2023/10/29 06:39:38;;;;;;;0.00;0.00;;;;;;;11.47;100.00;97437.50;5154959;27;20736;-57
2023/10/29 06:42:25;;;;;;;0.00;0.00;;;;;;;11.41;100.00;97371.84;5154604;27;20200;-57
2023/10/29 06:45:14;;;;;;;0.10;0.10;;;;;;;11.46;100.00;97345.69;5153192;27;20231;-57
2023/10/29 06:48:00;;;;;;;0.10;0.10;;;;;;;11.41;100.00;97386.91;5154662;27;20192;-57
2023/10/29 06:50:49;;;;;;;0.10;0.10;;;;;;;11.40;100.00;97444.38;5154520;27;20705;-57
2023/10/29 06:53:35;;;;;;;0.00;0.00;;;;;;;11.40;100.00;97470.06;5154539;27;20185;-57
2023/10/29 06:56:22;;;;;;;0.00;0.00;;;;;;;11.56;100.00;97525.09;5154343;27;20216;-57
2023/10/29 06:59:10;;;;;;;0.00;0.00;;;;;;;11.62;100.00;97511.28;5154415;27;20197;-57
2023/10/29 07:01:59;;;;;;;0.00;0.00;;;;;;;11.66;100.00;97523.25;5154421;27;20334;-57
2023/10/29 07:04:45;;;;;;;0.10;0.10;;;;;;;11.65;100.00;97533.03;5154326;27;20227;-57
2023/10/29 07:07:34;;;;;;;0.00;0.00;;;;;;;11.52;100.00;97518.44;5154334;27;20242;-57
2023/10/29 07:10:21;;;;;;;0.10;0.10;;;;;;;11.50;100.00;97531.00;5154101;27;20269;-57
2023/10/29 07:13:09;;;;;;;0.10;0.10;;;;;;;11.51;100.00;97536.16;5154390;27;20201;-57
2023/10/29 07:15:56;;;;;;;0.10;0.10;;;;;;;11.51;100.00;97557.38;5152696;27;20682;-57
2023/10/29 07:18:43;;;;;;;0.00;0.00;;;;;;;11.61;100.00;97557.34;5154289;27;20196;-57
2023/10/29 07:21:30;;;;;;;0.00;0.00;;;;;;;11.66;100.00;97541.81;5154180;27;20223;-57
2023/10/29 07:24:18;;;;;;;0.00;0.00;;;;;;;11.50;100.00;97579.56;5153866;27;20410;-57
2023/10/29 07:27:05;;;;;;;0.00;0.00;;;;;;;11.60;100.00;97574.22;5154290;27;20235;-57
2023/10/29 07:29:52;;;;;;;0.00;0.00;;;;;;;11.66;100.00;97597.50;5152907;27;20196;-57
2023/10/29 07:32:39;;;;;;;0.00;0.00;;;;;;;11.50;100.00;97599.94;5154176;27;20200;-57
2023/10/29 07:35:26;;;;;;;0.00;0.00;;;;;;;11.65;100.00;97606.44;5157022;27;20255;-57
2023/10/29 07:38:13;;;;;;;0.10;0.10;;;;;;;11.68;100.00;97611.47;5157763;27;20824;-57
2023/10/29 07:41:01;;;;;;;0.00;0.00;;;;;;;11.69;100.00;97605.19;5158187;27;20238;-57
2023/10/29 07:43:49;;;;;;;0.00;0.00;;;;;;;11.83;100.00;97638.41;5158004;27;20272;-60
2023/10/29 07:46:36;;;;;;;0.00;0.00;;;;;;;11.86;100.00;97630.16;5156808;27;20185;-59
2023/10/29 07:49:24;;;;;;;0.10;0.10;;;;;;;11.78;100.00;97641.47;5157817;27;20192;-57
2023/10/29 07:52:10;;;;;;;0.07;0.07;;;;;;;11.77;100.00;97618.56;5157625;27;20257;-57
2023/10/29 07:54:57;;;;;;;0.10;0.10;;;;;;;11.83;100.00;97607.41;5157929;27;20192;-57
2023/10/29 07:57:46;;;;;;;0.10;0.10;;;;;;;11.98;100.00;97584.75;5157549;27;20221;-57
2023/10/29 08:00:32;;;;;;;0.00;0.00;;;;;;;11.91;100.00;97591.63;5156419;27;20189;-57
2023/10/29 08:03:19;;;;;;;0.00;0.00;;;;;;;11.87;100.00;97597.34;5157543;27;20197;-57
2023/10/29 08:06:07;;;;;;;0.10;0.10;;;;;;;11.96;100.00;97592.00;5157609;27;20196;-57
2023/10/29 08:08:54;;;;;;;0.10;0.10;;;;;;;12.00;100.00;97582.78;5157536;27;20189;-57
2023/10/29 08:11:40;;;;;;;0.00;0.00;;;;;;;11.98;100.00;97566.19;5157494;27;20193;-57
2023/10/29 08:14:29;;;;;;;0.00;0.00;;;;;;;12.07;100.00;97574.25;5155380;27;20193;-57
2023/10/29 08:17:17;;;;;;;0.00;0.00;;;;;;;12.16;100.00;97587.47;5157215;27;20231;-57
2023/10/29 08:20:06;;;;;;;0.00;0.00;;;;;;;12.18;100.00;97603.25;5157387;27;20189;-57
2023/10/29 08:22:53;;;;;;;0.00;0.00;;;;;;;12.21;100.00;97621.53;5156738;27;20270;-57
2023/10/29 08:25:40;;;;;;;0.00;0.00;;;;;;;12.18;100.00;97630.63;5157115;27;20188;-57
2023/10/29 08:28:27;;;;;;;0.10;0.10;;;;;;;12.25;100.00;97633.50;5157071;27;20241;-57
2023/10/29 08:31:16;;;;;;;0.10;0.10;;;;;;;12.31;100.00;97628.47;5155314;27;20196;-57
2023/10/29 08:34:03;;;;;;;0.10;0.10;;;;;;;12.25;100.00;97623.72;5157098;27;20189;-57
2023/10/29 08:36:49;;;;;;;0.10;0.10;;;;;;;12.27;100.00;97612.97;5156779;27;20213;-57
2023/10/29 08:39:37;;;;;;;0.10;0.10;;;;;;;12.27;100.00;97621.78;5156809;27;20231;-57
2023/10/29 08:42:23;;;;;;;0.00;0.00;;;;;;;12.31;100.00;97617.00;5156811;27;20197;-57
2023/10/29 08:45:12;;;;;;;0.00;0.00;;;;;;;12.31;100.00;97624.97;5155371;27;20200;-57
2023/10/29 08:48:00;;;;;;;0.00;0.00;;;;;;;12.21;100.00;97630.31;5156346;27;20185;-57
2023/10/29 08:50:47;;;;;;;0.00;0.00;;;;;;;12.24;100.00;97622.06;5156569;27;20200;-56
2023/10/29 08:53:34;;;;;;;0.10;0.10;;;;;;;12.32;100.00;97627.47;5156759;27;20242;-57
2023/10/29 08:56:21;;;;;;;0.00;0.00;;;;;;;12.29;100.00;97630.44;5156410;27;20222;-57
2023/10/29 08:59:09;;;;;;;0.00;0.00;;;;;;;12.40;100.00;97632.06;5156305;27;20230;-57
2023/10/29 09:01:56;;;;;;;0.10;0.10;;;;;;;12.49;100.00;97627.69;5156500;27;20197;-57
2023/10/29 09:04:44;;;;;;;0.10;0.10;;;;;;;12.49;100.00;97648.94;5156247;27;20209;-57
2023/10/29 09:07:33;;;;;;;0.00;0.00;;;;;;;12.48;100.00;97649.91;5156123;27;20264;-57
2023/10/29 09:10:19;;;;;;;0.10;0.10;;;;;;;12.59;100.00;97655.84;5156028;27;20250;-57
2023/10/29 09:13:06;;;;;;;0.07;0.07;;;;;;;12.61;100.00;97643.25;5155987;27;20706;-57
2023/10/29 09:15:53;;;;;;;0.10;0.10;;;;;;;12.71;100.00;97643.19;5154789;27;20189;-56
2023/10/29 09:18:40;;;;;;;0.10;0.10;;;;;;;12.70;100.00;97638.03;5155966;27;20690;-57
2023/10/29 09:21:28;;;;;;;0.07;0.07;;;;;;;12.81;100.00;97638.66;5155858;27;20698;-57
2023/10/29 09:24:16;;;;;;;0.00;0.00;;;;;;;12.78;100.00;97648.75;5155751;27;20219;-56
2023/10/29 09:27:03;;;;;;;0.00;0.00;;;;;;;12.69;100.00;97660.28;5156025;27;20185;-57
2023/10/29 09:29:50;;;;;;;0.10;0.10;;;;;;;12.74;100.00;97664.19;5154381;27;20254;-56
2023/10/29 09:32:37;;;;;;;0.00;0.00;;;;;;;12.76;100.00;97669.34;5155762;27;20189;-56
2023/10/29 09:35:24;;;;;;;0.00;0.00;;;;;;;12.75;100.00;97665.84;5155772;27;20638;-56
2023/10/29 09:38:13;;;;;;;0.00;0.00;;;;;;;12.83;100.00;97665.91;5155496;27;20217;-56
2023/10/29 09:40:59;;;;;;;0.10;0.10;;;;;;;12.88;100.00;97661.00;5155870;27;20254;-57
2023/10/29 09:43:46;;;;;;;0.00;0.00;;;;;;;12.96;100.00;97648.78;5155669;27;20262;-57
2023/10/29 09:46:37;;;;;;;0.10;0.10;;;;;;;12.96;100.00;97646.97;5154070;27;20196;-57
2023/10/29 09:49:24;;;;;;;0.10;0.10;;;;;;;13.05;100.00;97650.56;5155587;27;20199;-57
2023/10/29 09:52:11;;;;;;;0.10;0.10;;;;;;;12.98;100.00;97668.91;5155437;27;20261;-57
2023/10/29 09:55:01;;;;;;;0.00;0.00;;;;;;;12.85;100.00;97666.63;5155356;27;20185;-57
2023/10/29 09:57:48;;;;;;;0.10;0.10;;;;;;;12.79;100.00;97669.03;5155350;27;20274;-57
2023/10/29 10:00:37;;;;;;;0.10;0.10;;;;;;;12.90;100.00;97645.75;5154174;27;20321;-56
2023/10/29 10:03:25;;;;;;;0.10;0.10;;;;;;;12.95;100.00;97639.16;5155204;27;20233;-57
2023/10/29 10:06:14;;;;;;;0.10;0.10;;;;;;;13.02;100.00;97633.06;5155112;27;20211;-56
2023/10/29 10:09:05;;;;;;;0.10;0.10;;;;;;;12.97;100.00;97637.19;5155166;27;20210;-57
2023/10/29 10:12:05;;;;;;;0.07;0.07;;;;;;;12.96;100.00;97635.50;5155149;27;20197;-57
2023/10/29 10:14:52;;;;;;;0.00;0.00;;;;;;;12.88;100.00;97650.38;5153746;27;20208;-57
2023/10/29 10:17:39;;;;;;;0.00;0.00;;;;;;;12.95;100.00;97652.44;5154862;27;20228;-57
2023/10/29 10:20:26;;;;;;;0.10;0.10;;;;;;;12.89;100.00;97659.19;5155055;27;20200;-57
2023/10/29 10:23:14;;;;;;;0.00;0.00;;;;;;;12.94;100.00;97661.41;5154921;27;20232;-56
2023/10/29 10:26:00;;;;;;;0.00;0.00;;;;;;;12.99;100.00;97644.00;5154734;27;20209;-57
2023/10/29 10:28:57;;;;;;;0.00;0.00;;;;;;;12.99;100.00;97646.66;5154436;27;20201;-57
2023/10/29 10:31:44;;;;;;;0.00;0.00;;;;;;;13.10;100.00;97659.72;5154600;27;20192;-57
2023/10/29 10:34:33;;;;;;;0.00;0.00;;;;;;;13.01;100.00;97659.78;5154653;27;20188;-57
2023/10/29 10:37:24;;;;;;;0.00;0.00;;;;;;;12.89;100.00;97656.53;5154618;27;20247;-57
2023/10/29 10:40:22;;;;;;;0.00;0.00;;;;;;;13.09;100.00;97658.06;5154833;27;20234;-57
2023/10/29 10:43:09;;;;;;;0.00;0.00;;;;;;;13.01;100.00;97670.44;5154785;27;20197;-57
2023/10/29 10:46:01;;;;;;;0.10;0.10;;;;;;;13.06;100.00;97671.66;5153174;27;20674;-56
2023/10/29 10:48:48;;;;;;;0.03;0.03;;;;;;;12.94;100.00;97672.03;5154430;27;20218;-57
2023/10/29 10:51:36;;;;;;;0.00;0.00;;;;;;;13.04;100.00;97664.84;5154519;27;20192;-57
2023/10/29 10:54:24;;;;;;;0.00;0.00;;;;;;;13.11;100.00;97660.56;5154591;27;20200;-57
2023/10/29 10:57:11;;;;;;;0.03;0.03;;;;;;;13.11;100.00;97645.44;5154671;27;20311;-57
2023/10/29 11:00:05;;;;;;;0.00;0.00;;;;;;;13.09;100.00;97630.66;5153002;27;20323;-57
2023/10/29 11:02:55;;;;;;;0.00;0.00;;;;;;;13.16;100.00;97643.19;5154409;27;20216;-57
2023/10/29 11:05:43;;;;;;;0.00;0.00;;;;;;;13.17;100.00;97650.16;5154367;27;20197;-57
2023/10/29 11:08:30;;;;;;;0.03;0.03;;;;;;;13.23;100.00;97661.22;5154345;27;20675;-57
2023/10/29 11:11:18;;;;;;;0.10;0.10;;;;;;;13.17;100.00;97647.50;5158682;27;20197;-56
2023/10/29 11:14:09;;;;;;;0.00;0.00;;;;;;;13.21;100.00;97668.50;5158401;27;20238;-57
2023/10/29 11:16:59;;;;;;;0.00;0.00;;;;;;;13.22;100.00;97664.84;5158584;27;20196;-58
2023/10/29 11:19:49;;;;;;;0.00;0.00;;;;;;;13.09;100.00;97660.72;5158158;27;20220;-58
2023/10/29 11:22:48;;;;;;;0.00;0.00;;;;;;;13.18;100.00;97648.34;5158044;27;20724;-58
2023/10/29 11:25:36;;;;;;;0.00;0.00;;;;;;;13.19;100.00;97634.09;5158218;27;20209;-58
2023/10/29 11:28:45;;;;;;;0.03;0.03;;;;;;;13.06;100.00;97626.47;5157483;27;20189;-58
2023/10/29 11:31:32;;;;;;;0.00;0.00;;;;;;;13.15;100.00;97620.25;5156982;27;20196;-58
2023/10/29 11:34:34;;;;;;;0.00;0.00;;;;;;;13.19;100.00;97628.78;5157888;27;20289;-58
2023/10/29 11:37:39;;;;;;;0.00;0.00;;;;;;;13.09;100.00;97642.13;5158029;27;20314;-58
2023/10/29 11:40:30;;;;;;;0.00;0.00;;;;;;;13.06;100.00;97654.88;5158037;27;20196;-58
2023/10/29 11:43:22;;;;;;;0.00;0.00;;;;;;;13.01;100.00;97660.63;5157898;27;20284;-58
2023/10/29 11:46:09;;;;;;;0.10;0.10;;;;;;;13.04;100.00;97656.84;5155708;27;20200;-58
2023/10/29 11:49:14;;;;;;;0.00;0.00;;;;;;;13.02;100.00;97654.31;5158025;27;20238;-58
2023/10/29 11:52:02;;;;;;;0.00;0.00;;;;;;;13.04;100.00;97675.47;5157922;27;20189;-58
2023/10/29 11:54:51;;;;;;;0.00;0.00;;;;;;;13.04;100.00;97678.13;5157876;27;20223;-58
2023/10/29 11:57:39;;;;;;;0.00;0.00;;;;;;;13.05;100.00;97687.75;5157048;27;20188;-58
2023/10/29 12:00:37;;;;;;;0.00;0.00;;;;;;;13.04;100.00;97664.84;5156190;27;20212;-58
2023/10/29 12:03:24;;;;;;;0.10;0.10;;;;;;;13.04;100.00;97664.84;5157706;27;20196;-58
2023/10/29 12:06:11;;;;;;;0.00;0.00;;;;;;;13.07;100.00;97637.94;5157417;27;20250;-58
2023/10/29 12:08:58;;;;;;;0.00;0.00;;;;;;;13.05;100.00;97634.59;5157654;27;20705;-58
2023/10/29 12:11:48;;;;;;;0.00;0.00;;;;;;;13.18;100.00;97627.91;5157589;27;20200;-58
2023/10/29 12:14:40;;;;;;;0.00;0.00;;;;;;;13.12;100.00;97636.50;5155971;27;20205;-58
2023/10/29 12:17:28;;;;;;;0.00;0.00;;;;;;;13.14;100.00;97637.19;5157343;27;20189;-58
2023/10/29 12:20:26;;;;;;;0.00;0.00;;;;;;;13.08;100.00;97632.47;5156571;27;20258;-58
2023/10/29 12:23:13;;;;;;;0.00;0.00;;;;;;;13.11;100.00;97615.38;5157006;27;20300;-58
2023/10/29 12:26:04;;;;;;;0.00;0.00;;;;;;;13.20;100.00;97634.94;5157245;27;20254;-58
2023/10/29 12:28:52;;;;;;;0.10;0.10;;;;;;;13.29;100.00;97620.72;5157143;27;20197;-58
2023/10/29 12:31:48;;;;;;;0.10;0.10;;;;;;;13.17;100.00;97644.84;5156625;27;20193;-58
2023/10/29 12:34:46;;;;;;;0.00;0.00;;;;;;;13.18;100.00;97659.81;5157117;27;20200;-58
2023/10/29 12:37:33;;;;;;;0.00;0.00;;;;;;;13.04;100.00;97651.53;5156823;27;20246;-57
2023/10/29 12:40:20;;;;;;;0.03;0.03;;;;;;;13.18;100.00;97651.84;5155957;27;20209;-58
2023/10/29 12:43:07;;;;;;;0.00;0.00;;;;;;;13.15;100.00;97651.31;5156787;27;20588;-58
2023/10/29 12:46:00;;;;;;;0.03;0.03;;;;;;;13.14;100.00;97650.47;5139623;27;20199;-58
2023/10/29 12:49:00;;;;;;;0.07;0.07;;;;;;;13.04;100.00;97657.69;5156717;27;20193;-58
2023/10/29 12:51:52;;;;;;;0.10;0.10;;;;;;;13.00;100.00;97661.63;5156692;27;20663;-58
2023/10/29 12:54:43;;;;;;;0.00;0.00;;;;;;;13.03;100.00;97657.84;5156178;27;20288;-58
2023/10/29 12:57:29;;;;;;;0.10;0.10;;;;;;;12.98;100.00;97645.00;5156628;27;20192;-58
2023/10/29 13:00:16;;;;;;;0.00;0.00;;;;;;;13.12;100.00;97655.13;5155051;27;20217;-58